Terminal Aerodrome Forecast
Issued by NWS Riverton, WY

Home | Current Version | Previous Version | Text Only | Print | Product List | Glossary On
Versions: 1 2 3 4 5 6 7 8 9 10 11 12 13 14 15 16 17 18 19 20 21 22 23 24
000
FTUS45 KRIW 151723
TAFRIW
TAF
KRIW 151723Z 1518/1618 VRB06KT P6SM FEW100
     FM152000 12008KT P6SM VCTS SCT080CB BKN120
     FM160200 04012KT P6SM VCSH SCT060 BKN080
     FM160700 35009KT P6SM SCT080
     FM161400 VRB06KT P6SM SCT080=

USA.gov is the U.S. government's official web portal to all federal, state and local government web resources and services.